Time;durP1;ratioP1;P1;durP2;ratioP2;P2;SDS_P1;SDS_P2;PMS_P1;PMS_P2;Temp;Humidity;BMP_temperature;BMP_pressure;BME280_temperature;BME280_humidity;BME280_pressure;Samples;Min_cycle;Max_cycle;Signal;HPM_P1;HPM_P2
2022/04/28 00:00:29;;;;;;;12.70;8.88;;;5.00;99.90;;;;;;5046005;28;20505;-49
2022/04/28 00:02:56;;;;;;;13.05;7.97;;;5.10;99.90;;;;;;5049579;28;20041;-50
2022/04/28 00:05:22;;;;;;;16.73;8.55;;;5.00;99.90;;;;;;5046353;28;20365;-53
2022/04/28 00:07:48;;;;;;;15.13;9.02;;;5.00;99.90;;;;;;5034470;28;20077;-55
2022/04/28 00:10:15;;;;;;;16.63;8.63;;;5.00;99.90;;;;;;5027565;28;20136;-54
2022/04/28 00:12:42;;;;;;;11.23;8.55;;;4.90;99.90;;;;;;5020388;28;20071;-54
2022/04/28 00:15:09;;;;;;;16.27;8.70;;;4.90;99.90;;;;;;5025568;28;20153;-51
2022/04/28 00:17:35;;;;;;;14.60;8.43;;;4.80;99.90;;;;;;5045012;28;20053;-52
2022/04/28 00:20:02;;;;;;;16.00;8.68;;;4.80;99.90;;;;;;5042796;28;20069;-51
2022/04/28 00:22:29;;;;;;;16.98;9.02;;;4.80;99.90;;;;;;5042126;28;20053;-50
2022/04/28 00:24:57;;;;;;;13.25;8.45;;;4.70;99.90;;;;;;5044165;28;20139;-51
2022/04/28 00:27:23;;;;;;;11.98;8.45;;;4.70;99.90;;;;;;5044405;28;20053;-53
2022/04/28 00:29:49;;;;;;;13.10;7.95;;;4.60;99.90;;;;;;5027462;28;20138;-53
2022/04/28 00:32:15;;;;;;;17.67;8.57;;;4.50;99.90;;;;;;5043734;28;20064;-51
2022/04/28 00:34:42;;;;;;;13.88;8.57;;;4.50;99.90;;;;;;5046560;28;20052;-52
2022/04/28 00:37:09;;;;;;;14.25;9.20;;;4.50;99.90;;;;;;5043812;28;20041;-52
2022/04/28 00:39:38;;;;;;;12.65;9.13;;;4.40;99.90;;;;;;5039692;28;20465;-51
2022/04/28 00:42:13;;;;;;;16.00;9.30;;;4.40;99.90;;;;;;5019423;28;20048;-54
2022/04/28 00:44:39;;;;;;;13.77;9.32;;;4.30;99.90;;;;;;5030677;28;20044;-54
2022/04/28 00:47:07;;;;;;;15.93;8.95;;;4.30;99.90;;;;;;5041092;28;20065;-55
2022/04/28 00:52:19;;;;;;;14.05;9.18;;;4.30;99.90;;;;;;5045869;28;20872;-54
2022/04/28 00:54:46;;;;;;;18.38;9.50;;;4.20;99.90;;;;;;5039363;28;20520;-50
2022/04/28 00:57:14;;;;;;;16.45;9.40;;;4.20;99.90;;;;;;5043159;28;20598;-52
2022/04/28 00:59:40;;;;;;;15.00;9.00;;;4.10;99.90;;;;;;5009310;28;20056;-51
2022/04/28 01:02:06;;;;;;;13.95;8.68;;;4.10;99.90;;;;;;5027755;28;20048;-55
2022/04/28 01:04:33;;;;;;;11.82;8.88;;;4.10;99.90;;;;;;5036914;28;20138;-53
2022/04/28 01:06:59;;;;;;;16.15;9.38;;;4.10;99.90;;;;;;5025059;28;20107;-53
2022/04/28 01:09:26;;;;;;;16.75;10.68;;;4.00;99.90;;;;;;5020408;28;20052;-52
2022/04/28 01:11:52;;;;;;;16.63;9.90;;;4.00;99.90;;;;;;5043957;28;20132;-54
2022/04/28 01:14:22;;;;;;;16.20;10.27;;;4.00;99.90;;;;;;5025341;28;20114;-55
2022/04/28 01:16:55;;;;;;;16.58;9.85;;;3.90;99.90;;;;;;5040840;28;20045;-53
2022/04/28 01:19:21;;;;;;;10.52;9.00;;;3.90;99.90;;;;;;5041651;28;20560;-56
2022/04/28 01:21:47;;;;;;;13.95;9.35;;;3.90;99.90;;;;;;5043488;28;20053;-55
2022/04/28 01:24:16;;;;;;;11.82;9.40;;;3.80;99.90;;;;;;5042339;28;20094;-55
2022/04/28 01:26:44;;;;;;;17.23;10.45;;;3.80;99.90;;;;;;5040293;28;20049;-55
2022/04/28 01:29:11;;;;;;;13.13;9.82;;;3.80;99.90;;;;;;5041300;28;20049;-49
2022/04/28 01:31:37;;;;;;;13.68;9.80;;;3.80;99.90;;;;;;5044742;28;20095;-48
2022/04/28 01:34:06;;;;;;;17.60;9.73;;;3.70;99.90;;;;;;5007612;28;20077;-51
2022/04/28 01:36:33;;;;;;;14.80;9.52;;;3.70;99.90;;;;;;5017479;28;20041;-48
2022/04/28 01:38:59;;;;;;;19.77;10.27;;;3.70;99.90;;;;;;5041334;28;20064;-52
2022/04/28 01:41:25;;;;;;;16.38;9.85;;;3.80;99.90;;;;;;5043370;28;20057;-55
2022/04/28 01:43:53;;;;;;;16.73;9.95;;;3.80;99.90;;;;;;5034741;28;20080;-54
2022/04/28 01:46:20;;;;;;;16.00;9.27;;;3.80;99.90;;;;;;5038690;28;20048;-55
2022/04/28 01:48:58;;;;;;;11.68;9.05;;;3.80;99.90;;;;;;5041269;28;20060;-55
2022/04/28 01:54:59;;;;;;;16.65;8.75;;;3.80;99.90;;;;;;5021202;28;20053;-50
2022/04/28 01:57:55;;;;;;;16.05;9.82;;;3.90;99.90;;;;;;5018569;28;20040;-48
2022/04/28 02:00:29;;;;;;;15.30;9.32;;;4.00;99.90;;;;;;5017723;28;20084;-53
2022/04/28 02:03:04;;;;;;;13.48;9.13;;;4.10;99.90;;;;;;5024936;28;20057;-53
2022/04/28 02:05:31;;;;;;;13.32;8.32;;;4.10;99.90;;;;;;5043798;28;20552;-54
2022/04/28 02:07:57;;;;;;;15.18;8.82;;;4.30;99.90;;;;;;5041486;28;20056;-55
2022/04/28 02:10:23;;;;;;;12.82;8.38;;;4.30;99.90;;;;;;5008439;28;20122;-54
2022/04/28 02:12:52;;;;;;;17.85;8.45;;;4.40;99.90;;;;;;5025514;28;20688;-49
2022/04/28 02:15:53;;;;;;;15.43;9.05;;;4.50;99.90;;;;;;5044946;28;20154;-55
2022/04/28 02:18:38;;;;;;;13.40;8.80;;;4.60;99.90;;;;;;5036239;28;20128;-53
2022/04/28 02:21:04;;;;;;;13.15;7.75;;;4.70;99.90;;;;;;5041101;28;20511;-50
2022/04/28 02:23:31;;;;;;;12.35;8.10;;;4.70;99.90;;;;;;5039478;28;20057;-52
2022/04/28 02:25:57;;;;;;;13.07;7.63;;;4.80;99.90;;;;;;5005963;28;20099;-53
2022/04/28 02:28:24;;;;;;;13.35;7.53;;;4.90;99.90;;;;;;5040378;28;20480;-53
2022/04/28 02:30:50;;;;;;;13.75;7.63;;;4.90;99.90;;;;;;5056402;28;20081;-55
2022/04/28 02:33:19;;;;;;;14.13;7.80;;;5.00;99.90;;;;;;5025368;28;20048;-54
2022/04/28 02:35:54;;;;;;;10.27;6.68;;;5.10;99.90;;;;;;5015185;28;20061;-55
2022/04/28 02:38:20;;;;;;;11.88;7.32;;;5.20;99.90;;;;;;5022682;28;20053;-51
2022/04/28 02:40:46;;;;;;;13.00;7.15;;;5.30;99.90;;;;;;5038959;28;20071;-55
2022/04/28 02:43:13;;;;;;;12.40;6.45;;;5.40;99.90;;;;;;5025849;28;20088;-54
2022/04/28 02:45:39;;;;;;;14.77;7.40;;;5.50;99.90;;;;;;5024330;28;20072;-53
2022/04/28 02:48:06;;;;;;;12.75;6.28;;;5.60;99.90;;;;;;5024280;28;20049;-49
2022/04/28 02:50:32;;;;;;;11.85;6.30;;;5.70;99.90;;;;;;5025004;28;20052;-53
2022/04/28 02:53:00;;;;;;;13.38;6.57;;;5.70;99.90;;;;;;5021389;28;20134;-51
2022/04/28 02:55:30;;;;;;;10.70;5.93;;;5.80;99.90;;;;;;5025270;28;20355;-53
2022/04/28 02:57:56;;;;;;;11.75;6.70;;;5.90;99.90;;;;;;5022762;28;20057;-52
2022/04/28 03:00:22;;;;;;;12.48;7.63;;;5.90;99.90;;;;;;5036914;28;20132;-47
2022/04/28 03:02:58;;;;;;;14.60;7.35;;;6.00;99.90;;;;;;5040474;28;20718;-49
2022/04/28 03:05:25;;;;;;;12.93;7.68;;;6.00;99.90;;;;;;5026580;28;20057;-52
2022/04/28 03:10:53;;;;;;;14.95;7.63;;;6.00;99.90;;;;;;5024371;28;20136;-56
2022/04/28 03:13:22;;;;;;;10.35;7.00;;;6.00;99.90;;;;;;5050496;28;20064;-54
2022/04/28 03:15:51;;;;;;;11.32;6.22;;;6.00;99.90;;;;;;5007024;28;20068;-54
2022/04/28 03:18:21;;;;;;;14.10;7.45;;;6.10;99.90;;;;;;5041416;28;20099;-55
2022/04/28 03:20:47;;;;;;;14.45;7.40;;;6.10;99.90;;;;;;5025327;28;20123;-55
2022/04/28 03:23:14;;;;;;;17.17;7.05;;;6.10;99.90;;;;;;5024268;28;20063;-55
2022/04/28 03:25:41;;;;;;;12.70;6.70;;;6.20;99.90;;;;;;5017579;28;20088;-55
2022/04/28 03:28:08;;;;;;;13.88;7.57;;;6.20;99.90;;;;;;5043899;28;20563;-55
2022/04/28 03:30:35;;;;;;;14.48;6.40;;;6.20;99.90;;;;;;5024001;28;20049;-55
2022/04/28 03:33:12;;;;;;;10.23;6.95;;;6.20;99.90;;;;;;5019160;28;20052;-56
2022/04/28 03:35:39;;;;;;;11.95;6.28;;;6.20;99.90;;;;;;5041322;28;20045;-55
2022/04/28 03:38:12;;;;;;;11.32;6.13;;;6.20;99.90;;;;;;5038730;28;20128;-53
2022/04/28 03:40:40;;;;;;;12.52;6.97;;;6.30;99.90;;;;;;5043872;28;20586;-55
2022/04/28 03:43:06;;;;;;;13.95;6.78;;;6.30;99.90;;;;;;5046097;28;20053;-55
2022/04/28 03:45:33;;;;;;;12.57;6.72;;;6.40;99.90;;;;;;5025377;28;20547;-55
2022/04/28 03:48:03;;;;;;;13.32;6.72;;;6.40;99.90;;;;;;5027668;28;20580;-55
2022/04/28 03:50:30;;;;;;;13.90;7.22;;;6.50;99.90;;;;;;5033056;28;20055;-53
2022/04/28 03:52:58;;;;;;;10.68;5.97;;;6.50;99.90;;;;;;5027410;28;20060;-52
2022/04/28 03:55:24;;;;;;;9.93;6.05;;;6.50;99.90;;;;;;5040492;28;20049;-53
2022/04/28 03:57:51;;;;;;;11.45;5.85;;;6.60;99.90;;;;;;5041285;28;20420;-55
2022/04/28 04:00:18;;;;;;;10.77;6.50;;;6.60;99.90;;;;;;5034305;28;20465;-55
2022/04/28 04:02:52;;;;;;;11.38;6.28;;;6.60;99.90;;;;;;5037349;28;20547;-56
2022/04/28 04:05:18;;;;;;;14.02;6.35;;;6.60;99.90;;;;;;5028717;28;20088;-55
2022/04/28 04:07:44;;;;;;;9.10;5.78;;;6.60;99.90;;;;;;5029615;28;20080;-49
2022/04/28 04:10:16;;;;;;;11.98;6.50;;;6.60;99.90;;;;;;5040762;28;20049;-50
2022/04/28 04:12:51;;;;;;;11.45;6.65;;;6.50;99.90;;;;;;5043956;28;20100;-54
2022/04/28 04:15:18;;;;;;;13.88;6.97;;;6.60;99.90;;;;;;5044435;28;20408;-51
2022/04/28 04:17:56;;;;;;;9.77;6.13;;;6.60;99.90;;;;;;5045978;28;20816;-52
2022/04/28 04:20:27;;;;;;;12.15;6.63;;;6.60;99.90;;;;;;5025747;28;20096;-52
2022/04/28 04:22:54;;;;;;;13.93;6.65;;;6.60;99.90;;;;;;5044550;28;20084;-52
2022/04/28 04:25:21;;;;;;;12.75;6.82;;;6.60;99.90;;;;;;5029359;28;20084;-54
2022/04/28 04:27:51;;;;;;;12.25;6.47;;;6.60;99.90;;;;;;5028088;28;20504;-55
2022/04/28 04:33:22;;;;;;;12.63;7.25;;;6.60;99.90;;;;;;5042670;28;20110;-49
2022/04/28 04:35:49;;;;;;;12.88;7.18;;;6.60;99.90;;;;;;5045134;28;20044;-55
2022/04/28 04:38:15;;;;;;;13.27;6.90;;;6.60;99.90;;;;;;5027590;28;20048;-54
2022/04/28 04:40:42;;;;;;;14.77;8.15;;;6.60;99.90;;;;;;5027877;28;20511;-54
2022/04/28 04:43:13;;;;;;;16.05;7.88;;;6.70;99.90;;;;;;5043083;28;20732;-55
2022/04/28 04:45:44;;;;;;;15.10;7.53;;;6.70;99.90;;;;;;5027889;28;20056;-54
2022/04/28 04:48:31;;;;;;;12.38;6.80;;;6.70;99.90;;;;;;5029771;28;20053;-54
2022/04/28 04:51:00;;;;;;;11.63;6.90;;;6.80;99.90;;;;;;5044607;28;20051;-53
2022/04/28 04:53:38;;;;;;;12.02;7.10;;;6.80;99.90;;;;;;4999185;28;20485;-55
2022/04/28 04:56:05;;;;;;;16.60;7.53;;;6.80;99.90;;;;;;5044928;28;20753;-54
2022/04/28 04:58:31;;;;;;;11.07;7.18;;;6.80;99.90;;;;;;5044196;28;20504;-54
2022/04/28 05:00:58;;;;;;;11.68;7.57;;;6.80;99.90;;;;;;5026781;28;20044;-54
2022/04/28 05:03:25;;;;;;;11.10;6.63;;;6.90;99.90;;;;;;5035678;28;20088;-54
2022/04/28 05:06:18;;;;;;;13.98;7.55;;;6.90;99.90;;;;;;5031470;28;20072;-53
2022/04/28 05:08:52;;;;;;;18.58;7.70;;;6.90;99.90;;;;;;5057753;28;20064;-53
2022/04/28 05:11:18;;;;;;;12.00;7.93;;;6.90;99.90;;;;;;5038314;28;20052;-53
2022/04/28 05:14:08;;;;;;;14.18;8.07;;;7.00;99.90;;;;;;5025636;28;20084;-54
2022/04/28 05:16:35;;;;;;;11.27;7.22;;;7.10;99.90;;;;;;5044076;28;20144;-54
2022/04/28 05:19:15;;;;;;;13.48;7.25;;;7.20;99.90;;;;;;5041221;28;20512;-53
2022/04/28 05:21:51;;;;;;;8.85;6.53;;;7.20;99.90;;;;;;5033421;28;20045;-53
2022/04/28 05:24:50;;;;;;;11.70;6.43;;;7.30;99.90;;;;;;5003079;28;20898;-54
2022/04/28 05:27:34;;;;;;;11.02;7.70;;;7.40;99.90;;;;;;5042870;28;20128;-55
2022/04/28 05:30:20;;;;;;;12.55;6.43;;;7.30;99.90;;;;;;5039991;28;20067;-54
2022/04/28 05:32:58;;;;;;;12.32;6.40;;;7.50;99.90;;;;;;5044577;28;20839;-54
2022/04/28 05:35:28;;;;;;;9.65;5.38;;;7.50;99.90;;;;;;5031989;28;20539;-52
2022/04/28 05:37:55;;;;;;;11.85;5.95;;;7.60;99.90;;;;;;5028418;28;20040;-54
2022/04/28 05:40:22;;;;;;;13.48;6.30;;;7.60;99.90;;;;;;4979569;28;20120;-52
2022/04/28 05:45:46;;;;;;;11.90;5.63;;;7.80;99.90;;;;;;5037415;28;20040;-52
2022/04/28 05:48:17;;;;;;;14.97;5.93;;;7.90;99.90;;;;;;5039955;28;20597;-50
2022/04/28 05:50:47;;;;;;;12.63;5.82;;;7.90;99.90;;;;;;5026446;28;20385;-51
2022/04/28 05:53:17;;;;;;;14.80;7.20;;;8.00;99.90;;;;;;5043016;28;20515;-48
2022/04/28 05:55:46;;;;;;;10.50;6.20;;;8.00;99.90;;;;;;5038472;28;20441;-50
2022/04/28 05:58:13;;;;;;;15.57;6.05;;;8.10;99.90;;;;;;5042666;28;20536;-48
2022/04/28 06:00:46;;;;;;;11.23;6.25;;;8.10;99.90;;;;;;5043974;28;20053;-53
2022/04/28 06:03:12;;;;;;;11.52;5.70;;;8.10;99.90;;;;;;5042913;28;20203;-54
2022/04/28 06:05:47;;;;;;;14.52;6.25;;;8.10;99.90;;;;;;5040398;28;20033;-54
2022/04/28 06:08:13;;;;;;;12.35;5.65;;;8.20;99.90;;;;;;5024635;28;20056;-54
2022/04/28 06:10:40;;;;;;;9.70;6.05;;;8.20;99.90;;;;;;5009428;28;20037;-47
2022/04/28 06:13:06;;;;;;;12.10;7.28;;;8.30;99.90;;;;;;5008248;28;20064;-46
2022/04/28 06:15:35;;;;;;;11.70;5.45;;;8.30;99.90;;;;;;5039391;28;20044;-49
2022/04/28 06:18:28;;;;;;;13.98;6.40;;;8.30;99.90;;;;;;5040028;28;20079;-46
2022/04/28 06:20:56;;;;;;;9.57;5.60;;;8.40;99.90;;;;;;5035662;28;20132;-50
2022/04/28 06:23:27;;;;;;;12.00;5.80;;;8.40;99.90;;;;;;5016444;28;20501;-46
2022/04/28 06:25:54;;;;;;;13.20;6.00;;;8.40;99.90;;;;;;5027415;28;20420;-52
2022/04/28 06:28:21;;;;;;;12.25;6.45;;;8.40;99.90;;;;;;5019428;28;20049;-47
2022/04/28 06:30:53;;;;;;;12.48;6.63;;;8.50;99.90;;;;;;5063784;28;20032;-47
2022/04/28 06:33:24;;;;;;;13.77;6.97;;;8.50;99.90;;;;;;5055946;28;20052;-48
2022/04/28 06:36:01;;;;;;;18.58;7.15;;;8.60;99.90;;;;;;5044018;28;20128;-51
2022/04/28 06:38:34;;;;;;;13.85;7.20;;;8.60;99.90;;;;;;5014768;28;20033;-45
2022/04/28 06:41:02;;;;;;;14.35;7.78;;;8.60;99.90;;;;;;5049010;28;20063;-48
2022/04/28 06:43:29;;;;;;;9.85;7.55;;;8.70;99.90;;;;;;5016432;28;20045;-49
2022/04/28 06:46:13;;;;;;;16.48;7.22;;;8.80;99.90;;;;;;5035235;28;20056;-47
2022/04/28 06:49:11;;;;;;;13.90;7.45;;;8.80;99.90;;;;;;5031986;28;20060;-47
2022/04/28 06:52:04;;;;;;;15.30;6.85;;;8.90;99.90;;;;;;5030454;28;20199;-47
2022/04/28 06:54:40;;;;;;;15.15;7.50;;;9.10;99.90;;;;;;5007656;28;20140;-47
2022/04/28 06:57:07;;;;;;;13.90;7.45;;;9.20;99.90;;;;;;5023774;28;20160;-50
2022/04/28 06:59:37;;;;;;;13.40;7.25;;;9.30;99.90;;;;;;4993367;28;20151;-47
2022/04/28 07:02:06;;;;;;;13.02;8.23;;;9.40;99.90;;;;;;5039995;28;20055;-46
2022/04/28 07:04:34;;;;;;;11.70;6.35;;;9.50;99.90;;;;;;5015158;28;20056;-51
2022/04/28 07:07:01;;;;;;;17.35;6.43;;;9.50;99.90;;;;;;5018463;28;20480;-50
2022/04/28 07:09:27;;;;;;;16.77;6.97;;;9.60;99.90;;;;;;5022220;28;20359;-49
2022/04/28 07:11:54;;;;;;;9.52;5.45;;;9.80;99.90;;;;;;5029178;28;20773;-51
2022/04/28 07:14:38;;;;;;;16.08;6.57;;;9.90;99.90;;;;;;5003468;28;20215;-48
2022/04/28 07:17:33;;;;;;;31.60;24.30;;;10.00;99.90;;;;;;5017906;28;20128;-51
2022/04/28 07:20:00;;;;;;;11.98;6.50;;;10.20;99.90;;;;;;5040353;28;20048;-45
2022/04/28 07:22:28;;;;;;;12.02;6.32;;;10.30;99.90;;;;;;5027235;28;20053;-49
2022/04/28 07:24:54;;;;;;;10.65;5.63;;;10.60;99.90;;;;;;5041752;28;20510;-51
2022/04/28 07:27:20;;;;;;;12.77;5.60;;;10.90;99.90;;;;;;5013262;28;20532;-50
2022/04/28 07:29:53;;;;;;;11.73;5.22;;;11.40;99.90;;;;;;5041044;28;20134;-51
2022/04/28 07:32:37;;;;;;;9.95;5.60;;;12.00;99.90;;;;;;5014311;28;20500;-49
2022/04/28 07:35:17;;;;;;;8.82;4.20;;;12.60;99.90;;;;;;5034364;28;20048;-51
2022/04/28 07:38:01;;;;;;;7.90;3.90;;;13.10;99.90;;;;;;5040248;28;20092;-48
2022/04/28 07:40:36;;;;;;;9.88;3.97;;;13.70;99.90;;;;;;5043777;28;20048;-50
2022/04/28 07:43:12;;;;;;;9.20;4.15;;;14.00;99.90;;;;;;5037050;28;20131;-53
2022/04/28 07:45:39;;;;;;;9.50;3.97;;;14.00;99.90;;;;;;5012563;28;20135;-47
2022/04/28 07:48:11;;;;;;;9.98;3.72;;;13.90;99.90;;;;;;5028508;28;21775;-47
2022/04/28 07:50:38;;;;;;;9.43;3.85;;;13.80;99.90;;;;;;5005453;28;20504;-47
2022/04/28 07:53:12;;;;;;;13.45;8.52;;;14.20;99.90;;;;;;5010287;28;20061;-46
2022/04/28 07:55:38;;;;;;;8.80;3.97;;;14.10;99.90;;;;;;5039734;28;20682;-47
2022/04/28 07:58:05;;;;;;;13.23;8.55;;;14.30;99.90;;;;;;5042377;28;20085;-47
2022/04/28 08:00:51;;;;;;;12.07;5.35;;;14.70;99.90;;;;;;5036877;28;20195;-52
2022/04/28 08:03:18;;;;;;;9.52;4.57;;;15.40;99.90;;;;;;5025082;28;20049;-53
2022/04/28 08:05:50;;;;;;;8.38;4.28;;;15.60;99.90;;;;;;5040353;28;20059;-54
2022/04/28 08:08:17;;;;;;;7.35;3.15;;;15.80;99.90;;;;;;5025826;28;20724;-53
2022/04/28 08:10:44;;;;;;;8.82;3.58;;;16.30;99.90;;;;;;5042326;28;20526;-53
2022/04/28 08:13:10;;;;;;;9.07;3.38;;;16.40;99.90;;;;;;5025132;28;20863;-48
2022/04/28 08:15:57;;;;;;;6.57;2.78;;;15.80;99.90;;;;;;5042475;28;20053;-51
2022/04/28 08:18:31;;;;;;;9.70;3.35;;;15.50;99.90;;;;;;5026200;28;20056;-52
2022/04/28 08:21:00;;;;;;;10.75;5.60;;;14.80;99.90;;;;;;5027129;28;20049;-48
2022/04/28 08:23:26;;;;;;;8.68;2.67;;;14.20;99.90;;;;;;5024257;28;20069;-47
2022/04/28 08:25:52;;;;;;;8.35;2.72;;;14.00;99.90;;;;;;5011953;28;20049;-46
2022/04/28 08:28:19;;;;;;;9.05;2.58;;;14.00;99.90;;;;;;5042583;28;20372;-46
2022/04/28 08:30:45;;;;;;;11.20;2.85;;;13.80;99.90;;;;;;5044788;28;20052;-46
2022/04/28 08:33:11;;;;;;;7.53;3.40;;;13.70;99.90;;;;;;5033998;28;20055;-46
2022/04/28 08:35:37;;;;;;;8.68;3.33;;;13.50;99.90;;;;;;5043727;28;20049;-49
2022/04/28 08:38:03;;;;;;;10.32;3.78;;;13.30;99.90;;;;;;5033501;28;20153;-47
2022/04/28 08:40:30;;;;;;;8.65;2.60;;;13.10;99.90;;;;;;5025970;28;20492;-47
2022/04/28 08:43:04;;;;;;;8.27;2.90;;;13.10;99.90;;;;;;5038645;28;20056;-47
2022/04/28 08:45:41;;;;;;;9.02;2.85;;;13.10;99.90;;;;;;5027347;28;20785;-49
2022/04/28 08:48:26;;;;;;;;;;;13.20;99.90;;;;;;5038654;28;20053;-52
2022/04/28 08:51:27;;;;;;;11.17;3.37;;;13.10;99.90;;;;;;5037264;28;19925;-52
2022/04/28 08:54:00;;;;;;;10.13;3.77;;;13.30;99.90;;;;;;5035705;28;20307;-49
2022/04/28 08:56:26;;;;;;;10.23;2.55;;;13.50;99.90;;;;;;5041221;28;20053;-49
2022/04/28 08:58:57;;;;;;;7.70;2.63;;;13.50;99.90;;;;;;5007406;28;20107;-50
2022/04/28 09:01:27;;;;;;;10.18;2.67;;;13.60;99.90;;;;;;5029218;28;20048;-48
2022/04/28 09:04:14;;;;;;;9.07;2.30;;;13.60;99.90;;;;;;5038563;28;20080;-51
2022/04/28 09:06:59;;;;;;;7.05;2.25;;;13.80;99.90;;;;;;5044512;28;20051;-50
2022/04/28 09:09:35;;;;;;;7.63;2.72;;;13.90;99.90;;;;;;5029479;28;20069;-48
2022/04/28 09:12:21;;;;;;;9.48;3.03;;;13.80;99.90;;;;;;5030073;28;20053;-46
2022/04/28 09:15:26;;;;;;;4.82;2.33;;;14.10;99.90;;;;;;5056024;28;20547;-49
2022/04/28 09:18:00;;;;;;;14.75;8.52;;;14.40;99.90;;;;;;5042803;28;20057;-50
2022/04/28 09:20:26;;;;;;;12.63;5.78;;;14.00;99.90;;;;;;5048380;28;20055;-53
2022/04/28 09:22:56;;;;;;;9.48;2.92;;;14.20;99.90;;;;;;5026197;28;20053;-49
2022/04/28 09:25:31;;;;;;;8.75;3.03;;;14.20;99.90;;;;;;5041254;28;20080;-46
2022/04/28 09:28:02;;;;;;;6.10;2.45;;;14.20;99.90;;;;;;5033290;28;20373;-47
2022/04/28 09:30:49;;;;;;;8.20;2.70;;;14.30;99.90;;;;;;5026136;28;20051;-48
2022/04/28 09:33:49;;;;;;;6.10;2.38;;;14.30;99.90;;;;;;5034305;28;20087;-46
2022/04/28 09:36:37;;;;;;;7.88;2.42;;;14.30;99.90;;;;;;5015322;28;20072;-48
2022/04/28 09:42:31;;;;;;;8.15;2.50;;;14.30;99.90;;;;;;4998035;28;20037;-48
2022/04/28 09:45:01;;;;;;;6.93;2.20;;;14.30;99.90;;;;;;5031145;28;20091;-51
2022/04/28 09:47:31;;;;;;;9.60;2.47;;;14.30;99.90;;;;;;5030860;28;20459;-49
2022/04/28 09:49:58;;;;;;;10.40;2.67;;;14.30;99.90;;;;;;5024246;28;20053;-53
2022/04/28 09:52:28;;;;;;;7.30;3.42;;;14.30;99.90;;;;;;5041931;28;20053;-52
2022/04/28 09:55:23;;;;;;;5.90;2.13;;;14.40;99.90;;;;;;5002767;28;20740;-53
2022/04/28 09:58:09;;;;;;;5.70;2.13;;;14.50;99.90;;;;;;5038826;28;20045;-47
2022/04/28 10:00:36;;;;;;;9.65;2.38;;;14.90;99.60;;;;;;5026859;28;20839;-52
2022/04/28 10:03:03;;;;;;;10.70;3.47;;;15.20;99.70;;;;;;5011299;28;20052;-50
2022/04/28 10:05:33;;;;;;;11.02;3.15;;;15.20;96.20;;;;;;5037970;28;20032;-53
2022/04/28 10:08:20;;;;;;;7.38;2.30;;;15.30;97.30;;;;;;5023770;28;20041;-51
2022/04/28 10:10:47;;;;;;;11.48;4.03;;;15.20;98.90;;;;;;5005965;28;20049;-53
2022/04/28 10:13:15;;;;;;;7.60;3.97;;;15.30;98.20;;;;;;5029338;28;20076;-53
2022/04/28 10:16:00;;;;;;;11.25;3.05;;;15.20;93.70;;;;;;5032750;28;20053;-53
2022/04/28 10:18:35;;;;;;;8.45;2.85;;;15.00;95.70;;;;;;5028221;28;20065;-53
2022/04/28 10:21:05;;;;;;;9.95;3.28;;;15.00;93.90;;;;;;5024824;28;20111;-53
2022/04/28 10:32:58;;;;;;;7.90;3.75;;;15.30;94.30;;;;;;5053643;28;20049;-53
2022/04/28 10:35:37;;;;;;;14.50;6.68;;;15.40;93.60;;;;;;5042754;28;20087;-54
2022/04/28 10:38:10;;;;;;;5.72;2.53;;;15.60;94.10;;;;;;5044843;28;20070;-54
2022/04/28 10:40:45;;;;;;;7.90;2.78;;;15.60;91.50;;;;;;5030631;28;20049;-54
2022/04/28 10:43:29;;;;;;;8.55;2.60;;;15.70;92.90;;;;;;5038325;28;20102;-54
2022/04/28 10:45:57;;;;;;;10.85;3.58;;;16.00;92.90;;;;;;5042511;28;20048;-53
2022/04/28 10:48:29;;;;;;;9.25;4.45;;;15.90;92.70;;;;;;5023090;28;20041;-55
2022/04/28 10:51:30;;;;;;;7.97;2.88;;;16.10;91.90;;;;;;5031149;28;20153;-54
2022/04/28 10:54:02;;;;;;;6.88;2.88;;;16.40;92.00;;;;;;5034242;28;20056;-54
2022/04/28 10:56:52;;;;;;;13.80;5.00;;;16.10;91.60;;;;;;5025903;28;20657;-54
2022/04/28 10:59:40;;;;;;;10.77;3.25;;;16.30;90.40;;;;;;5040394;28;20037;-54
2022/04/28 11:02:10;;;;;;;13.63;3.42;;;16.50;86.00;;;;;;5038086;28;20065;-53
2022/04/28 11:04:39;;;;;;;8.70;2.90;;;16.90;87.70;;;;;;5019062;28;20073;-54
2022/04/28 11:07:08;;;;;;;6.40;2.42;;;16.80;89.80;;;;;;5036084;28;20051;-54
2022/04/28 11:09:39;;;;;;;8.70;3.35;;;16.90;88.00;;;;;;5031366;28;20139;-55
2022/04/28 11:12:13;;;;;;;8.23;3.17;;;17.00;86.80;;;;;;5040955;28;20056;-55
2022/04/28 11:14:47;;;;;;;10.73;4.28;;;16.90;82.70;;;;;;5033979;28;20052;-55
2022/04/28 11:17:15;;;;;;;7.32;3.03;;;16.60;82.20;;;;;;5040987;28;20048;-54
2022/04/28 11:19:42;;;;;;;10.88;4.45;;;16.60;83.80;;;;;;5020524;28;20045;-55
2022/04/28 11:22:11;;;;;;;9.88;4.15;;;16.60;84.00;;;;;;5038686;28;20451;-57
2022/04/28 11:24:48;;;;;;;9.18;4.28;;;16.70;83.20;;;;;;5032854;28;20095;-55
2022/04/28 11:27:31;;;;;;;10.73;3.70;;;16.60;78.00;;;;;;5016230;28;20037;-54
2022/04/28 11:30:11;;;;;;;13.15;6.20;;;16.50;80.50;;;;;;5038900;28;20041;-53
2022/04/28 11:32:52;;;;;;;13.93;6.85;;;16.70;81.10;;;;;;5031051;28;20738;-51
2022/04/28 11:35:19;;;;;;;9.18;3.85;;;16.80;79.90;;;;;;5025625;28;20072;-51
2022/04/28 11:37:48;;;;;;;10.55;3.83;;;17.40;79.90;;;;;;5033121;28;20080;-48
2022/04/28 11:40:16;;;;;;;10.60;4.60;;;17.90;78.10;;;;;;5031719;28;20888;-46
2022/04/28 11:42:43;;;;;;;15.63;7.68;;;17.70;75.40;;;;;;5028665;28;20419;-49
2022/04/28 11:45:09;;;;;;;10.15;4.78;;;17.60;76.00;;;;;;5033569;28;20080;-47
2022/04/28 11:47:45;;;;;;;8.20;4.07;;;17.60;76.20;;;;;;5031006;28;20053;-48
2022/04/28 11:50:24;;;;;;;11.52;4.78;;;18.00;70.60;;;;;;5026369;28;20049;-49
2022/04/28 11:53:05;;;;;;;10.15;5.55;;;17.80;72.80;;;;;;5029758;28;20060;-48
2022/04/28 11:55:35;;;;;;;23.53;14.20;;;17.40;70.20;;;;;;5037288;28;20579;-47
2022/04/28 11:58:02;;;;;;;8.52;4.25;;;16.90;74.60;;;;;;5033618;28;20064;-51
2022/04/28 12:00:37;;;;;;;8.07;4.00;;;17.50;74.80;;;;;;5034420;28;20079;-53
2022/04/28 12:03:03;;;;;;;20.02;14.05;;;18.40;68.50;;;;;;5038973;28;20639;-50
2022/04/28 12:05:32;;;;;;;12.15;6.22;;;18.10;70.70;;;;;;5031008;28;20053;-51
2022/04/28 12:07:59;;;;;;;13.95;5.57;;;18.20;69.60;;;;;;5028963;28;20059;-52
2022/04/28 12:16:07;;;;;;;11.25;5.38;;;19.00;67.10;;;;;;5036844;28;20110;-48
2022/04/28 12:21:24;;;;;;;21.67;14.20;;;18.50;68.50;;;;;;5037140;28;20749;-51
2022/04/28 12:23:58;;;;;;;12.52;8.25;;;18.60;67.20;;;;;;5029415;28;20473;-50
2022/04/28 12:26:26;;;;;;;15.98;8.32;;;18.80;64.30;;;;;;5038402;28;20045;-56
2022/04/28 12:28:53;;;;;;;11.60;5.97;;;18.80;65.50;;;;;;5038586;28;20590;-55
2022/04/28 12:31:30;;;;;;;9.40;4.00;;;18.80;64.20;;;;;;5029163;28;20046;-55
2022/04/28 12:33:57;;;;;;;16.77;12.02;;;18.70;64.50;;;;;;5035826;28;20489;-55
2022/04/28 12:36:24;;;;;;;8.48;3.42;;;19.90;66.00;;;;;;5041871;28;20041;-55
2022/04/28 12:38:56;;;;;;;8.85;3.33;;;19.80;60.50;;;;;;5033491;28;20106;-56
2022/04/28 12:41:30;;;;;;;10.50;4.45;;;20.20;63.90;;;;;;5033621;28;20052;-57
2022/04/28 12:44:00;;;;;;;14.65;9.40;;;20.30;57.10;;;;;;5058130;28;20052;-56
2022/04/28 12:46:32;;;;;;;16.38;9.88;;;19.30;56.20;;;;;;5021027;28;20049;-55
2022/04/28 12:49:03;;;;;;;24.05;16.83;;;19.10;58.90;;;;;;5036887;28;20096;-56
2022/04/28 12:51:31;;;;;;;10.48;3.83;;;19.70;58.00;;;;;;5027615;28;20391;-56
2022/04/28 12:54:10;;;;;;;11.82;5.60;;;20.10;56.30;;;;;;5039149;28;20049;-56
2022/04/28 12:56:42;;;;;;;9.68;3.47;;;21.00;55.10;;;;;;5036441;28;20441;-56
2022/04/28 12:59:10;;;;;;;8.73;3.95;;;20.20;55.10;;;;;;5037837;28;20120;-55
2022/04/28 13:01:38;;;;;;;12.43;5.22;;;19.40;54.90;;;;;;5031751;28;20051;-56
2022/04/28 13:04:11;;;;;;;13.13;4.75;;;20.00;56.60;;;;;;5037392;28;20060;-56
2022/04/28 13:06:40;;;;;;;7.47;3.38;;;20.60;54.50;;;;;;5056334;28;20101;-56
2022/04/28 13:09:07;;;;;;;10.18;6.05;;;20.90;53.00;;;;;;5036733;28;20517;-56
2022/04/28 13:11:40;;;;;;;14.77;8.38;;;21.20;52.90;;;;;;5035478;28;20084;-53
2022/04/28 13:14:09;;;;;;;10.35;5.22;;;21.40;51.40;;;;;;5027202;28;20056;-52
2022/04/28 13:16:35;;;;;;;7.63;3.08;;;20.70;51.30;;;;;;5027340;28;20037;-51
2022/04/28 13:19:03;;;;;;;9.18;4.85;;;21.10;51.70;;;;;;5040199;28;20120;-50
2022/04/28 13:21:29;;;;;;;10.68;5.05;;;20.90;50.70;;;;;;5030052;28;20595;-50
2022/04/28 13:23:56;;;;;;;9.85;4.53;;;21.30;49.60;;;;;;5032449;28;20048;-47
2022/04/28 13:26:24;;;;;;;13.00;4.20;;;21.60;48.90;;;;;;5026089;28;20049;-46
2022/04/28 13:28:52;;;;;;;12.85;4.07;;;21.00;49.50;;;;;;5037630;28;20056;-49
2022/04/28 13:31:19;;;;;;;11.70;3.42;;;20.00;52.00;;;;;;5027018;28;20520;-50
2022/04/28 13:33:46;;;;;;;11.77;6.05;;;19.90;52.50;;;;;;5026346;28;20049;-50
2022/04/28 13:36:13;;;;;;;8.30;3.15;;;19.90;52.50;;;;;;5036909;28;20045;-48
2022/04/28 13:38:39;;;;;;;10.35;5.20;;;20.00;52.20;;;;;;5041416;28;20830;-48
2022/04/28 13:41:07;;;;;;;9.45;4.10;;;20.20;51.80;;;;;;5038307;28;20054;-49
2022/04/28 13:43:33;;;;;;;13.02;5.10;;;19.40;54.70;;;;;;5038619;28;20141;-46